createdAt,value
2022-12-01T00:04:04.855Z,3.30
2022-12-01T00:09:12.143Z,3.08
2022-12-01T00:14:17.927Z,2.88
2022-12-01T00:19:25.160Z,3.50
2022-12-01T00:24:28.605Z,3.35
2022-12-01T00:29:32.011Z,3.05
2022-12-01T00:34:35.381Z,3.55
2022-12-01T00:39:40.024Z,3.92
2022-12-01T00:44:43.299Z,4.30
2022-12-01T00:49:47.280Z,3.42
2022-12-01T00:54:51.315Z,4.82
2022-12-01T00:59:54.590Z,4.18
2022-12-01T01:10:01.107Z,4.22
2022-12-01T01:15:07.687Z,3.80
2022-12-01T01:20:11.382Z,4.00
2022-12-01T01:25:15.564Z,3.38
2022-12-01T01:30:20.549Z,3.50
2022-12-01T01:35:24.027Z,3.08
2022-12-01T01:40:27.347Z,2.55
2022-12-01T01:45:30.879Z,3.13
2022-12-01T01:50:35.645Z,3.22
2022-12-01T01:55:39.406Z,3.25
2022-12-01T02:00:44.983Z,3.55
2022-12-01T02:05:48.625Z,3.78
2022-12-01T02:11:23.294Z,3.50
2022-12-01T02:16:49.095Z,3.20
2022-12-01T02:22:23.972Z,3.00
2022-12-01T02:27:48.415Z,2.85
2022-12-01T02:33:00.348Z,4.15
2022-12-01T02:38:09.913Z,3.43
2022-12-01T02:43:27.777Z,3.17
2022-12-01T02:48:35.116Z,2.40
2022-12-01T02:53:38.603Z,3.15
2022-12-01T02:58:44.951Z,2.97
2022-12-01T03:04:01.262Z,3.05
2022-12-01T03:09:07.323Z,2.95
2022-12-01T03:14:31.127Z,2.67
2022-12-01T03:19:44.868Z,2.75
2022-12-01T03:24:50.166Z,3.35
2022-12-01T03:29:59.304Z,2.78
2022-12-01T03:35:11.626Z,2.67
2022-12-01T03:40:19.121Z,2.30
2022-12-01T03:45:33.696Z,2.60
2022-12-01T03:50:56.027Z,2.42
2022-12-01T03:56:03.853Z,2.45
2022-12-01T04:01:08.846Z,2.20
2022-12-01T04:06:13.725Z,2.13
2022-12-01T04:11:17.245Z,2.05
2022-12-01T04:16:20.794Z,2.20
2022-12-01T04:21:24.548Z,1.60
2022-12-01T04:26:33.742Z,2.53
2022-12-01T04:31:37.483Z,2.30
2022-12-01T04:36:41.275Z,2.30
2022-12-01T04:41:45.512Z,2.50
2022-12-01T04:46:48.879Z,1.80
2022-12-01T04:51:53.075Z,2.28
2022-12-01T04:56:56.485Z,2.30
2022-12-01T05:02:00.390Z,2.92
2022-12-01T05:07:06.502Z,3.72
2022-12-01T05:12:09.919Z,3.70
2022-12-01T05:17:13.471Z,3.17
2022-12-01T05:22:16.758Z,4.35
2022-12-01T05:27:20.231Z,4.30
2022-12-01T05:32:23.883Z,5.15
2022-12-01T05:37:27.064Z,6.25
2022-12-01T05:47:33.558Z,9.88
2022-12-01T05:57:40.651Z,10.65
2022-12-01T06:02:44.366Z,9.43
2022-12-01T06:07:49.447Z,9.82
2022-12-01T06:12:52.731Z,11.60
2022-12-01T06:17:59.595Z,11.65
2022-12-01T06:23:03.467Z,12.98
2022-12-01T06:28:06.909Z,14.20
2022-12-01T06:33:10.314Z,15.00
2022-12-01T06:38:13.849Z,12.82
2022-12-01T06:43:17.211Z,11.05
2022-12-01T06:48:21.759Z,9.75
2022-12-01T06:53:25.317Z,10.13
2022-12-01T06:58:29.029Z,9.88
2022-12-01T07:03:32.610Z,10.25
2022-12-01T07:08:36.314Z,10.43
2022-12-01T07:13:41.414Z,10.77
2022-12-01T07:18:44.757Z,11.38
2022-12-01T07:23:48.311Z,12.32
2022-12-01T07:28:53.441Z,11.60
2022-12-01T07:33:57.102Z,13.80
2022-12-01T07:39:04.683Z,13.45
2022-12-01T07:44:10.970Z,13.45
2022-12-01T07:49:14.243Z,13.50
2022-12-01T07:54:17.857Z,13.38
2022-12-01T07:59:21.282Z,11.73
2022-12-01T08:04:24.774Z,12.85
2022-12-01T08:09:28.258Z,14.27
2022-12-01T08:14:31.755Z,13.48
2022-12-01T08:19:35.465Z,14.98
2022-12-01T08:24:39.220Z,14.50
2022-12-01T08:29:44.906Z,14.57
2022-12-01T08:34:53.307Z,13.85
2022-12-01T08:39:57.934Z,13.65
2022-12-01T08:45:01.332Z,15.48
2022-12-01T08:50:13.302Z,13.40
2022-12-01T08:55:31.012Z,11.40
2022-12-01T09:00:42.587Z,13.40
2022-12-01T09:05:45.798Z,13.45
2022-12-01T09:10:53.193Z,13.07
2022-12-01T09:16:07.689Z,12.38
2022-12-01T09:21:18.528Z,12.43
2022-12-01T09:26:22.238Z,10.68
2022-12-01T09:31:26.471Z,10.43
2022-12-01T09:36:31.583Z,11.30
2022-12-01T09:41:44.513Z,12.43
2022-12-01T09:46:56.303Z,11.60
2022-12-01T09:52:00.414Z,12.70
2022-12-01T09:57:04.317Z,10.88
2022-12-01T10:02:26.579Z,10.25
2022-12-01T10:08:05.928Z,10.15
2022-12-01T10:13:23.289Z,9.60
2022-12-01T10:18:32.398Z,10.35
2022-12-01T10:24:09.929Z,8.63
2022-12-01T10:29:31.601Z,9.60
2022-12-01T10:34:38.822Z,10.10
2022-12-01T10:39:44.714Z,9.07
2022-12-01T10:44:48.219Z,7.97
2022-12-01T10:49:53.146Z,10.07
2022-12-01T10:54:58.150Z,6.22
2022-12-01T11:00:07.209Z,6.20
2022-12-01T11:05:24.024Z,8.30
2022-12-01T11:10:30.732Z,7.85
2022-12-01T11:15:40.053Z,5.80
2022-12-01T11:20:43.746Z,6.55
2022-12-01T11:25:56.183Z,6.05
2022-12-01T11:31:02.902Z,5.80
2022-12-01T11:36:10.611Z,5.88
2022-12-01T11:41:37.774Z,6.30
2022-12-01T11:46:50.199Z,5.47
2022-12-01T11:52:17.601Z,5.68
2022-12-01T11:57:33.557Z,6.90
2022-12-01T12:03:06.944Z,5.95
2022-12-01T12:08:31.621Z,6.95
2022-12-01T12:14:01.209Z,5.90
2022-12-01T12:19:33.677Z,6.05
2022-12-01T12:25:10.013Z,6.13
2022-12-01T12:30:23.834Z,7.53
2022-12-01T12:35:58.282Z,7.55
2022-12-01T12:41:22.757Z,8.05
2022-12-01T12:46:37.728Z,11.90
2022-12-01T12:52:22.056Z,14.88
2022-12-01T12:57:44.716Z,14.57
2022-12-01T13:03:10.252Z,14.45
2022-12-01T13:08:23.810Z,13.38
2022-12-01T13:13:46.330Z,15.00
2022-12-01T13:19:13.621Z,14.48
2022-12-01T13:24:23.313Z,12.27
2022-12-01T13:29:40.885Z,12.45
2022-12-01T13:34:48.475Z,12.05
2022-12-01T13:39:55.091Z,12.80
2022-12-01T13:45:09.960Z,12.48
2022-12-01T13:50:41.032Z,13.52
2022-12-01T13:56:24.509Z,11.95
2022-12-01T14:01:28.000Z,13.43
2022-12-01T14:06:40.866Z,12.48
2022-12-01T14:11:59.669Z,11.68
2022-12-01T14:17:03.756Z,12.57
2022-12-01T14:22:33.882Z,12.07
2022-12-01T14:27:43.176Z,12.20
2022-12-01T14:32:46.457Z,12.25
2022-12-01T14:37:50.534Z,12.02
2022-12-01T14:42:57.254Z,11.68
2022-12-01T14:48:04.440Z,11.32
2022-12-01T14:53:36.612Z,10.45
2022-12-01T15:03:58.970Z,10.65
2022-12-01T15:14:48.112Z,10.00
2022-12-01T15:19:52.217Z,10.80
2022-12-01T15:25:16.033Z,10.93
2022-12-01T15:35:23.878Z,10.52
2022-12-01T15:45:57.877Z,11.90
2022-12-01T15:51:07.386Z,11.45
2022-12-01T15:56:12.385Z,10.55
2022-12-01T16:01:19.324Z,9.30
2022-12-01T16:06:27.432Z,8.85
2022-12-01T16:11:31.388Z,8.20
2022-12-01T16:16:46.631Z,7.63
2022-12-01T16:21:50.023Z,6.68
2022-12-01T16:26:59.322Z,7.15
2022-12-01T16:32:38.918Z,6.55
2022-12-01T16:37:42.720Z,5.50
2022-12-01T16:42:46.769Z,5.25
2022-12-01T16:47:50.056Z,5.32
2022-12-01T16:52:53.483Z,4.85
2022-12-01T16:57:56.907Z,5.20
2022-12-01T17:03:01.116Z,5.35
2022-12-01T17:08:05.154Z,5.70
2022-12-01T17:13:10.768Z,5.97
2022-12-01T17:18:15.756Z,5.80
2022-12-01T17:23:18.976Z,6.05
2022-12-01T17:28:22.566Z,6.28
2022-12-01T17:33:25.909Z,6.60
2022-12-01T17:38:29.404Z,6.30
2022-12-01T17:43:34.848Z,5.75
2022-12-01T17:48:46.262Z,6.50
2022-12-01T17:53:49.762Z,7.25
2022-12-01T17:58:53.108Z,6.95
2022-12-01T18:03:57.837Z,7.20
2022-12-01T18:09:01.214Z,7.40
2022-12-01T18:14:04.637Z,7.45
2022-12-01T18:19:10.063Z,7.93
2022-12-01T18:24:13.542Z,7.63
2022-12-01T18:29:20.165Z,8.02
2022-12-01T18:34:24.147Z,8.45
2022-12-01T18:39:27.898Z,8.40
2022-12-01T18:44:33.357Z,7.68
2022-12-01T18:49:36.772Z,8.90
2022-12-01T18:54:40.517Z,8.48
2022-12-01T18:59:43.910Z,8.05
2022-12-01T19:04:47.630Z,6.07
2022-12-01T19:09:52.156Z,5.38
2022-12-01T19:14:55.847Z,4.90
2022-12-01T19:20:00.422Z,5.50
2022-12-01T19:25:03.917Z,5.57
2022-12-01T19:30:10.989Z,6.07
2022-12-01T19:35:14.681Z,5.85
2022-12-01T19:40:19.318Z,5.82
2022-12-01T19:45:23.035Z,6.00
2022-12-01T19:50:28.463Z,9.15
2022-12-01T19:55:32.376Z,10.55
2022-12-01T20:00:35.753Z,12.65
2022-12-01T20:05:39.508Z,14.50
2022-12-01T20:10:47.865Z,13.90
2022-12-01T20:15:51.243Z,13.98
2022-12-01T20:21:11.470Z,13.20
2022-12-01T20:26:16.339Z,13.43
2022-12-01T20:31:25.540Z,13.70
2022-12-01T20:36:29.494Z,12.93
2022-12-01T20:41:32.959Z,12.68
2022-12-01T20:46:38.545Z,12.30
2022-12-01T20:51:42.140Z,12.23
2022-12-01T20:56:46.013Z,12.90
2022-12-01T21:01:49.718Z,11.40
2022-12-01T21:06:58.520Z,13.25
2022-12-01T21:12:03.528Z,13.27
2022-12-01T21:17:28.819Z,11.77
2022-12-01T21:22:32.330Z,12.48
2022-12-01T21:27:36.436Z,12.95
2022-12-01T21:32:43.879Z,13.25
2022-12-01T21:37:49.542Z,11.70
2022-12-01T21:42:53.431Z,12.55
2022-12-01T21:48:17.535Z,11.85
2022-12-01T21:53:22.612Z,11.85
2022-12-01T21:58:28.655Z,10.32
2022-12-01T22:03:43.507Z,11.80
2022-12-01T22:08:50.294Z,12.93
2022-12-01T22:14:13.028Z,11.95
2022-12-01T22:19:28.704Z,12.35
2022-12-01T22:24:38.071Z,14.00
2022-12-01T22:29:46.160Z,14.05
2022-12-01T22:34:53.694Z,13.90
2022-12-01T22:39:57.768Z,15.02
2022-12-01T22:45:23.674Z,14.32
2022-12-01T22:50:31.731Z,14.07
2022-12-01T22:55:35.232Z,14.23
2022-12-01T23:00:39.365Z,14.32
2022-12-01T23:05:42.695Z,14.40
2022-12-01T23:10:46.130Z,14.90
2022-12-01T23:15:52.884Z,13.18
2022-12-01T23:20:58.975Z,14.85
2022-12-01T23:26:07.179Z,14.10
2022-12-01T23:31:10.869Z,13.70
2022-12-01T23:36:19.256Z,15.40
2022-12-01T23:41:31.225Z,14.68
2022-12-01T23:46:34.625Z,13.55
2022-12-01T23:51:40.412Z,14.30
2022-12-01T23:56:45.856Z,14.25
